Airfield :
LOGIN :

Register | Disclaimer

   EN    FR    IT 

 










Legend :    VFR   Marginal VFR   IFR   Intensive IFR   Very Intensive IFR
Visi :
Ceiling :
>= 8 km
>= 3000ft
5 to 8 km
1000 to 3000 ft
1500m to 5 km
500 to 1000 ft
800 to 1500m
200 to 500 ft
< 800m
< 200 ft
Symbols :   Thunderstorms  Fog  Heavy snow  Heavy precipitations  Wind > 20 kt
SIGMETs :     Misc.  Thunderstorms  Icing  Turbulence  Mountain Waves  Volcanic Ashes






- Airport Elevation : 157 ft
- IATA code : LIL


LFQQ - Lille Lesquin

CURRENT METAR :
  • 201330Z AUTO 32011KT 290V350 9999 2600 -RADZ BKN018/// BKN028/// BKN035/// ///TCU 04/02 Q1033 TEMPO 35015G25KT 4000 SHRA BKN013

EXPIRED METARs :
  • 201300Z AUTO 33009KT CAVOK 05/01 Q1032 TEMPO 35015G25KT 4000 SHRA BKN013
  • 201230Z AUTO 35011KT 9999 FEW018 SCT034 OVC060 06/02 Q1032 TEMPO 35015G25KT 4000 SHRA BKN013
  • 201200Z AUTO 35012KT 9999 FEW022 BKN033 BKN042 05/02 Q1032 TEMPO 4000 SHRA BKN013
  • 201130Z AUTO 34009KT 9999 FEW017 BKN036 BKN047 05/02 Q1032 TEMPO 4000 SHRA BKN013
  • 201100Z AUTO 32011KT 9999 FEW028 BKN060 06/02 Q1032 TEMPO 3000 SHRA BKN013

TAF AMD TAF LFQQ
Valid from the 20 at 13:00 until the 21 at 18:00 UTC


201322Z 2013/2118 34012KT 9999 SCT020 SCT040
TEMPO 2013/2020 35015G25KT 4000 SHRAGS BKN013
TEMPO 2108/2118 4000 SHRA BKN013
ATIS : +33 3 20 16 19 54



MET'MAP, your aeronautical weather chart ! - Copyright ORBIFLY December 2007 - Disclaimer

ORBIFLY MET'MAP TEAM :

Programming & Development : Alexandra Zaïnal
Concept & original design : Baudouin d'Aumeries
Assistance for programming : Marc-Olivier Méhu
Technical & hardware support : Manuel Goepfert

Contact : metmap@orbifly.com




SOURCES & CREDITS :

   NOAA